Time;durP1;ratioP1;P1;durP2;ratioP2;P2;SDS_P1;SDS_P2;PMS_P1;PMS_P2;Temp;Humidity;BMP_temperature;BMP_pressure;BME280_temperature;BME280_humidity;BME280_pressure;Samples;Min_cycle;Max_cycle;Signal;HPM_P1;HPM_P2
2022/08/01 00:01:25;;;;;;;14.20;12.87;;;17.60;99.90;;;;;;5047957;28;20238;-77
2022/08/01 00:03:52;;;;;;;15.13;13.63;;;17.60;99.90;;;;;;5045133;28;20231;-76
2022/08/01 00:06:19;;;;;;;13.17;11.97;;;17.70;99.90;;;;;;5019140;28;20224;-77
2022/08/01 00:08:45;;;;;;;12.90;11.70;;;17.70;99.90;;;;;;5050508;28;20334;-77
2022/08/01 00:11:14;;;;;;;12.63;11.33;;;17.70;99.90;;;;;;5042491;28;20219;-77
2022/08/01 00:13:40;;;;;;;12.00;10.80;;;17.70;99.90;;;;;;5039148;28;20310;-77
2022/08/01 00:16:07;;;;;;;11.97;10.53;;;17.60;99.90;;;;;;5040150;28;20615;-76
2022/08/01 00:18:35;;;;;;;10.23;9.17;;;17.60;99.90;;;;;;5041375;28;20237;-76
2022/08/01 00:21:02;;;;;;;10.90;9.90;;;17.60;99.90;;;;;;5025003;28;20216;-77
2022/08/01 00:23:29;;;;;;;10.20;9.20;;;17.60;99.90;;;;;;5042342;28;20231;-77
2022/08/01 00:25:55;;;;;;;10.37;9.40;;;17.60;99.90;;;;;;5037684;28;20247;-76
2022/08/01 00:28:23;;;;;;;11.13;10.13;;;17.60;99.90;;;;;;5040659;28;20759;-77
2022/08/01 00:30:50;;;;;;;10.93;9.37;;;17.60;99.90;;;;;;5045406;28;20228;-76
2022/08/01 00:33:17;;;;;;;10.83;9.70;;;17.60;99.90;;;;;;5029789;28;20230;-76
2022/08/01 00:35:44;;;;;;;10.63;9.50;;;17.60;99.90;;;;;;5027089;28;20740;-75
2022/08/01 00:38:11;;;;;;;11.43;10.33;;;17.60;99.90;;;;;;5050296;28;20250;-77
2022/08/01 00:40:38;;;;;;;11.47;10.33;;;17.60;99.90;;;;;;5040605;28;20234;-77
2022/08/01 00:43:05;;;;;;;11.13;10.03;;;17.70;99.90;;;;;;5038777;28;20249;-76
2022/08/01 00:45:33;;;;;;;11.70;10.27;;;17.60;99.90;;;;;;5030627;28;20853;-76
2022/08/01 00:47:59;;;;;;;12.00;10.77;;;17.70;99.90;;;;;;5045402;28;20890;-77
2022/08/01 00:50:26;;;;;;;11.43;10.37;;;17.60;99.90;;;;;;5035439;28;20238;-77
2022/08/01 00:52:55;;;;;;;13.27;11.90;;;17.60;99.90;;;;;;5040918;28;20840;-76
2022/08/01 00:55:23;;;;;;;11.50;10.30;;;17.70;99.90;;;;;;5044757;28;20229;-77
2022/08/01 00:57:50;;;;;;;12.00;10.80;;;17.60;99.90;;;;;;5026453;28;20744;-77
2022/08/01 01:00:17;;;;;;;12.87;11.47;;;17.70;99.90;;;;;;5035287;28;20226;-76
2022/08/01 01:02:45;;;;;;;14.10;12.03;;;17.70;99.90;;;;;;5043126;28;20234;-77
2022/08/01 01:05:12;;;;;;;13.33;11.93;;;17.70;99.90;;;;;;5031165;28;20228;-76
2022/08/01 01:07:48;;;;;;;16.33;11.83;;;17.70;99.90;;;;;;5048269;28;20249;-75
2022/08/01 01:10:20;;;;;;;13.30;11.87;;;17.70;99.90;;;;;;5049586;28;20250;-77
2022/08/01 01:12:52;;;;;;;13.00;11.60;;;17.70;99.90;;;;;;5055571;28;20233;-76
2022/08/01 01:15:23;;;;;;;12.73;11.43;;;17.70;99.90;;;;;;5019528;28;20289;-76
2022/08/01 01:17:56;;;;;;;12.67;10.50;;;17.70;99.90;;;;;;5033450;28;20219;-76
2022/08/01 01:20:30;;;;;;;12.93;11.03;;;17.70;99.90;;;;;;5040377;28;20302;-78
2022/08/01 01:23:15;;;;;;;11.43;10.33;;;17.70;99.90;;;;;;5040818;28;20611;-76
2022/08/01 01:25:54;;;;;;;11.73;10.50;;;17.70;99.90;;;;;;5042780;28;20318;-76
2022/08/01 01:28:30;;;;;;;12.80;10.23;;;17.70;99.90;;;;;;5041386;28;20220;-76
2022/08/01 01:31:00;;;;;;;11.17;9.87;;;17.70;99.90;;;;;;5042909;28;20378;-76
2022/08/01 01:33:31;;;;;;;10.83;9.73;;;17.60;99.90;;;;;;5029884;28;20395;-76
2022/08/01 01:36:01;;;;;;;11.93;10.07;;;17.60;99.90;;;;;;5023047;28;20680;-76
2022/08/01 01:38:32;;;;;;;13.80;10.40;;;17.60;99.90;;;;;;5044405;28;20238;-76
2022/08/01 01:41:00;;;;;;;10.47;9.37;;;17.60;99.90;;;;;;5021947;28;20216;-76
2022/08/01 01:43:30;;;;;;;11.57;10.23;;;17.60;99.90;;;;;;5043914;28;20626;-76
2022/08/01 01:45:58;;;;;;;11.23;10.03;;;17.60;99.90;;;;;;5046092;28;20668;-76
2022/08/01 01:48:28;;;;;;;11.73;9.90;;;17.60;99.90;;;;;;5041383;28;20231;-76
2022/08/01 01:50:56;;;;;;;10.80;9.70;;;17.50;99.90;;;;;;5037283;28;20227;-77
2022/08/01 01:53:24;;;;;;;12.53;9.63;;;17.50;99.90;;;;;;5038554;28;20215;-76
2022/08/01 01:55:54;;;;;;;11.63;9.60;;;17.50;99.90;;;;;;5017023;28;20232;-76
2022/08/01 01:58:22;;;;;;;11.30;9.53;;;17.50;99.90;;;;;;5047753;28;20235;-76
2022/08/01 02:00:50;;;;;;;11.97;8.67;;;17.50;99.90;;;;;;5029884;28;20224;-76
2022/08/01 02:03:20;;;;;;;10.67;9.30;;;17.50;99.90;;;;;;5023464;28;20334;-75
2022/08/01 02:05:48;;;;;;;14.77;9.53;;;17.60;99.90;;;;;;5039597;28;20230;-75
2022/08/01 02:08:19;;;;;;;10.33;9.17;;;17.60;99.90;;;;;;5044272;28;20230;-76
2022/08/01 02:11:17;;;;;;;10.57;9.50;;;17.50;99.90;;;;;;5040376;28;20239;-76
2022/08/01 02:13:39;;;;;;;10.70;9.50;;;17.60;99.90;;;;;;5022313;28;20757;-77
2022/08/01 02:16:06;;;;;;;10.87;9.07;;;17.50;99.90;;;;;;5040542;28;20224;-76
2022/08/01 02:18:34;;;;;;;9.97;8.87;;;17.50;99.90;;;;;;5042136;28;20628;-77
2022/08/01 02:21:04;;;;;;;10.33;8.43;;;17.50;99.90;;;;;;5045062;28;20255;-75
2022/08/01 02:23:34;;;;;;;10.90;8.13;;;17.50;99.90;;;;;;5041129;28;20240;-76
2022/08/01 02:26:03;;;;;;;8.50;7.53;;;17.50;99.90;;;;;;5041415;28;20232;-75
2022/08/01 02:28:33;;;;;;;8.80;6.70;;;17.50;99.90;;;;;;5040436;28;20226;-76
2022/08/01 02:31:04;;;;;;;8.07;7.27;;;17.50;99.90;;;;;;5025034;28;20227;-74
2022/08/01 02:33:38;;;;;;;7.83;6.33;;;17.40;99.90;;;;;;5039615;28;20234;-76
2022/08/01 02:36:06;;;;;;;8.90;7.30;;;17.40;99.90;;;;;;5041487;28;20286;-76
2022/08/01 02:38:36;;;;;;;8.23;7.20;;;17.40;99.90;;;;;;5042003;28;20227;-77
2022/08/01 02:41:08;;;;;;;11.17;8.00;;;17.40;99.90;;;;;;5023373;28;20595;-76
2022/08/01 02:43:38;;;;;;;10.00;7.37;;;17.40;99.90;;;;;;5042756;28;20224;-76
2022/08/01 02:46:07;;;;;;;10.17;7.83;;;17.40;99.90;;;;;;5040616;28;20220;-77
2022/08/01 02:48:39;;;;;;;10.73;7.87;;;17.40;99.90;;;;;;5042238;28;20680;-77
2022/08/01 02:51:08;;;;;;;11.87;8.20;;;17.40;99.90;;;;;;5022484;28;20234;-76
2022/08/01 02:53:38;;;;;;;9.60;6.87;;;17.30;99.90;;;;;;5036463;28;20222;-77
2022/08/01 02:56:07;;;;;;;10.60;7.83;;;17.30;99.90;;;;;;5043046;28;20242;-77
2022/08/01 02:58:37;;;;;;;12.20;7.70;;;17.30;99.90;;;;;;5048616;28;20215;-78
2022/08/01 03:01:06;;;;;;;9.67;7.57;;;17.30;99.90;;;;;;5039242;28;20226;-78
2022/08/01 03:03:34;;;;;;;9.93;7.30;;;17.30;99.90;;;;;;5037670;28;20216;-78
2022/08/01 03:06:03;;;;;;;9.83;7.30;;;17.20;99.90;;;;;;5038523;28;20234;-77
2022/08/01 03:08:31;;;;;;;11.00;8.03;;;17.30;99.90;;;;;;5023266;28;20234;-76
2022/08/01 03:11:01;;;;;;;8.67;7.77;;;17.20;99.90;;;;;;5024796;28;20220;-78
2022/08/01 03:13:30;;;;;;;8.77;7.87;;;17.20;99.90;;;;;;5039116;28;20575;-77
2022/08/01 03:15:58;;;;;;;9.13;7.90;;;17.20;99.90;;;;;;5036949;28;20228;-76
2022/08/01 03:18:26;;;;;;;10.20;8.93;;;17.20;99.90;;;;;;5040928;28;20228;-75
2022/08/01 03:20:56;;;;;;;10.27;8.20;;;17.20;99.90;;;;;;5042021;28;20591;-76
2022/08/01 03:23:25;;;;;;;9.00;8.10;;;17.20;99.90;;;;;;5045899;28;20224;-78
2022/08/01 03:25:53;;;;;;;12.27;8.60;;;17.20;99.90;;;;;;5027600;28;20224;-78
2022/08/01 03:28:22;;;;;;;11.60;8.70;;;17.20;99.90;;;;;;5043372;28;20583;-79
2022/08/01 03:30:50;;;;;;;10.40;8.70;;;17.20;99.90;;;;;;5028161;28;20307;-76
2022/08/01 03:33:18;;;;;;;9.00;8.03;;;17.20;99.90;;;;;;5043247;28;20249;-77
2022/08/01 03:35:49;;;;;;;10.43;8.50;;;17.20;99.90;;;;;;5042639;28;20207;-78
2022/08/01 03:38:19;;;;;;;9.20;8.30;;;17.20;99.90;;;;;;5043364;28;20216;-77
2022/08/01 03:40:50;;;;;;;11.97;8.20;;;17.20;99.90;;;;;;5037969;28;20227;-77
2022/08/01 03:43:21;;;;;;;8.90;8.00;;;17.20;99.90;;;;;;5036065;28;20311;-77
2022/08/01 03:45:52;;;;;;;12.90;8.23;;;17.20;99.90;;;;;;5043166;28;20227;-76
2022/08/01 03:48:23;;;;;;;10.20;7.77;;;17.20;99.90;;;;;;5042338;28;20731;-76
2022/08/01 03:50:52;;;;;;;10.40;8.17;;;17.20;99.90;;;;;;5040512;28;20224;-77
2022/08/01 03:53:23;;;;;;;12.00;7.90;;;17.20;99.90;;;;;;5034411;28;20231;-77
2022/08/01 03:55:53;;;;;;;8.77;7.87;;;17.30;99.90;;;;;;5056760;28;20225;-77
2022/08/01 03:58:21;;;;;;;8.10;7.30;;;17.20;99.90;;;;;;5042500;28;20213;-77
2022/08/01 04:00:48;;;;;;;10.53;8.13;;;17.20;99.90;;;;;;5040159;28;20708;-75
2022/08/01 04:03:15;;;;;;;8.33;7.40;;;17.20;99.90;;;;;;5009795;28;20602;-77
2022/08/01 04:05:43;;;;;;;10.60;7.30;;;17.20;99.90;;;;;;5023327;28;20220;-77
2022/08/01 04:08:09;;;;;;;8.10;6.80;;;17.20;99.90;;;;;;5042284;28;20224;-77
2022/08/01 04:10:37;;;;;;;8.27;6.83;;;17.20;99.90;;;;;;5045678;28;20234;-77
2022/08/01 04:13:05;;;;;;;7.60;6.80;;;17.20;99.90;;;;;;5046617;28;20220;-77
2022/08/01 04:15:32;;;;;;;7.80;6.37;;;17.20;99.90;;;;;;5040062;28;20227;-76
2022/08/01 04:18:01;;;;;;;11.87;6.80;;;17.20;99.90;;;;;;5028472;28;20707;-76
2022/08/01 04:20:27;;;;;;;8.87;6.33;;;17.20;99.90;;;;;;5025912;28;20301;-76
2022/08/01 04:22:54;;;;;;;7.80;6.43;;;17.20;99.90;;;;;;5038046;28;20234;-76
2022/08/01 04:25:25;;;;;;;8.37;6.70;;;17.20;99.90;;;;;;5034675;28;20251;-75
2022/08/01 04:27:53;;;;;;;7.60;6.43;;;17.20;99.90;;;;;;5043791;28;20235;-75
2022/08/01 04:30:26;;;;;;;8.70;6.43;;;17.20;99.90;;;;;;5048113;28;20222;-75
2022/08/01 04:32:55;;;;;;;7.20;6.00;;;17.20;99.90;;;;;;5045750;28;20311;-76
2022/08/01 04:35:27;;;;;;;6.40;5.83;;;17.20;99.90;;;;;;5047141;28;20354;-77
2022/08/01 04:37:56;;;;;;;6.33;5.60;;;17.20;99.90;;;;;;5044591;28;20302;-76
2022/08/01 04:40:23;;;;;;;9.20;6.27;;;17.20;99.90;;;;;;5041986;28;20309;-77
2022/08/01 04:42:50;;;;;;;8.37;6.03;;;17.30;99.90;;;;;;5028669;28;20246;-77
2022/08/01 04:45:17;;;;;;;6.63;5.70;;;17.20;99.90;;;;;;5048522;28;20241;-77
2022/08/01 04:47:51;;;;;;;7.33;5.87;;;17.30;99.90;;;;;;5045061;28;20632;-78
2022/08/01 04:50:21;;;;;;;5.80;5.30;;;17.30;99.90;;;;;;5042440;28;20226;-77
2022/08/01 04:52:48;;;;;;;6.57;5.40;;;17.30;99.90;;;;;;5026415;28;20234;-77
2022/08/01 04:55:16;;;;;;;5.53;4.97;;;17.30;99.90;;;;;;5035431;28;20265;-76
2022/08/01 04:57:47;;;;;;;5.37;4.53;;;17.40;99.90;;;;;;5043442;28;20705;-76
2022/08/01 05:00:17;;;;;;;6.17;5.03;;;17.40;99.90;;;;;;5042902;28;20536;-77
2022/08/01 05:02:43;;;;;;;6.30;4.70;;;17.40;99.90;;;;;;5035576;28;20239;-77
2022/08/01 05:05:11;;;;;;;5.20;4.57;;;17.40;99.90;;;;;;5022914;28;20635;-77
2022/08/01 05:07:38;;;;;;;6.40;4.90;;;17.50;99.90;;;;;;5038803;28;20216;-78
2022/08/01 05:10:08;;;;;;;8.93;4.90;;;17.50;99.90;;;;;;5049032;28;20228;-77
2022/08/01 05:12:35;;;;;;;7.20;4.30;;;17.50;99.90;;;;;;5039698;28;20284;-78
2022/08/01 05:15:02;;;;;;;5.47;4.30;;;17.50;99.90;;;;;;5045094;28;20285;-78
2022/08/01 05:17:29;;;;;;;4.40;3.90;;;17.50;99.90;;;;;;5019061;28;20312;-78
2022/08/01 05:19:55;;;;;;;5.40;3.73;;;17.50;99.90;;;;;;5045379;28;20254;-78
2022/08/01 05:22:25;;;;;;;6.67;3.80;;;17.50;99.90;;;;;;5025618;28;20238;-78
2022/08/01 05:24:52;;;;;;;4.23;3.53;;;17.50;99.90;;;;;;5042685;28;20254;-78
2022/08/01 05:27:19;;;;;;;5.13;4.00;;;17.50;99.90;;;;;;5042744;28;20325;-79
2022/08/01 05:29:45;;;;;;;5.67;3.60;;;17.50;99.90;;;;;;5039478;28;20231;-80
2022/08/01 05:32:12;;;;;;;5.07;3.37;;;17.40;99.90;;;;;;5024638;28;20223;-80
2022/08/01 05:34:39;;;;;;;3.00;2.70;;;17.40;99.90;;;;;;5025791;28;20285;-80
2022/08/01 05:37:07;;;;;;;2.90;2.30;;;17.40;99.90;;;;;;5028019;28;20593;-80
2022/08/01 05:39:35;;;;;;;2.60;2.10;;;17.40;99.90;;;;;;5026813;28;20232;-80
2022/08/01 05:42:02;;;;;;;2.20;2.00;;;17.40;99.90;;;;;;5047184;28;20220;-80
2022/08/01 05:44:31;;;;;;;2.43;1.87;;;17.30;99.90;;;;;;5043447;28;20224;-80
2022/08/01 05:46:58;;;;;;;3.03;2.03;;;17.40;99.90;;;;;;5050322;28;20533;-80
2022/08/01 05:49:27;;;;;;;2.33;2.13;;;17.40;99.90;;;;;;5043400;28;20267;-80
2022/08/01 05:51:56;;;;;;;3.33;2.20;;;17.40;99.90;;;;;;5043113;28;20708;-80
2022/08/01 05:54:23;;;;;;;2.53;1.93;;;17.40;99.90;;;;;;5026540;28;20230;-80
2022/08/01 05:56:55;;;;;;;2.33;2.10;;;17.40;99.90;;;;;;5043808;28;20229;-79
2022/08/01 05:59:22;;;;;;;2.50;2.13;;;17.40;99.90;;;;;;5043626;28;20319;-79
2022/08/01 06:01:48;;;;;;;2.63;2.20;;;17.50;99.90;;;;;;5021491;28;20223;-79
2022/08/01 06:04:15;;;;;;;4.03;2.10;;;17.50;99.90;;;;;;5023491;28;20226;-79
2022/08/01 06:06:41;;;;;;;3.30;2.03;;;17.50;99.90;;;;;;5042190;28;20817;-79
2022/08/01 06:09:08;;;;;;;3.47;2.10;;;17.50;99.90;;;;;;5040464;28;20247;-79
2022/08/01 06:11:35;;;;;;;2.87;2.20;;;17.50;99.90;;;;;;5042176;28;20277;-79
2022/08/01 06:14:03;;;;;;;3.43;1.90;;;17.60;99.90;;;;;;5047498;28;20220;-79
2022/08/01 06:16:30;;;;;;;8.37;2.10;;;17.60;99.90;;;;;;5037697;28;20241;-79
2022/08/01 06:18:56;;;;;;;4.40;2.10;;;17.60;99.90;;;;;;5046908;28;20228;-79
2022/08/01 06:21:23;;;;;;;4.10;2.10;;;17.70;99.90;;;;;;5048040;28;20251;-77
2022/08/01 06:23:50;;;;;;;3.77;2.50;;;17.70;99.90;;;;;;5051241;28;20306;-78
2022/08/01 06:26:18;;;;;;;4.70;2.20;;;17.80;99.90;;;;;;5043426;28;20243;-79
2022/08/01 06:28:45;;;;;;;3.17;1.93;;;17.80;99.90;;;;;;5030492;28;20321;-78
2022/08/01 06:31:14;;;;;;;2.83;1.87;;;17.90;99.90;;;;;;5046032;28;20224;-78
2022/08/01 06:33:41;;;;;;;5.78;2.08;;;18.00;99.90;;;;;;5019542;28;20309;-78
2022/08/01 06:36:08;;;;;;;5.20;2.40;;;18.00;99.90;;;;;;5039614;28;20629;-77
2022/08/01 06:38:35;;;;;;;5.53;2.40;;;18.10;99.90;;;;;;5023576;28;20320;-78
2022/08/01 06:41:04;;;;;;;7.27;2.40;;;18.20;99.90;;;;;;5038568;28;20223;-77
2022/08/01 06:43:32;;;;;;;4.97;2.25;;;18.30;99.90;;;;;;5037000;28;20756;-77
2022/08/01 06:45:58;;;;;;;4.70;2.53;;;18.40;99.90;;;;;;5018251;28;20270;-78
2022/08/01 06:48:26;;;;;;;8.50;2.80;;;18.60;99.90;;;;;;5035749;28;20292;-77
2022/08/01 06:51:07;;;;;;;7.68;2.63;;;18.60;99.90;;;;;;5027383;28;20216;-79
2022/08/01 06:53:34;;;;;;;5.18;2.45;;;18.70;99.90;;;;;;5041453;28;20277;-77
2022/08/01 06:56:01;;;;;;;5.60;2.45;;;18.70;99.90;;;;;;5046986;28;20231;-78
2022/08/01 06:58:27;;;;;;;5.68;2.35;;;18.70;99.90;;;;;;5040937;28;20226;-77
2022/08/01 07:00:54;;;;;;;6.53;2.50;;;18.70;99.90;;;;;;5052677;28;20299;-77
2022/08/01 07:03:21;;;;;;;5.93;2.38;;;18.60;99.90;;;;;;5045461;28;20219;-76
2022/08/01 07:05:49;;;;;;;8.15;2.30;;;18.60;99.90;;;;;;5046288;28;20705;-77
2022/08/01 07:08:15;;;;;;;7.55;2.67;;;18.60;99.90;;;;;;5051041;28;20216;-77
2022/08/01 07:10:43;;;;;;;5.93;2.47;;;18.50;99.90;;;;;;5048864;28;21086;-78
2022/08/01 07:13:11;;;;;;;7.87;2.60;;;18.40;99.90;;;;;;5029301;28;20246;-77
2022/08/01 07:15:38;;;;;;;5.38;2.60;;;18.40;99.90;;;;;;5053489;28;20285;-77
2022/08/01 07:18:05;;;;;;;7.83;3.60;;;18.40;99.90;;;;;;5029084;28;20224;-77
2022/08/01 07:20:32;;;;;;;7.23;2.90;;;18.40;99.90;;;;;;5029875;28;20228;-77
2022/08/01 07:23:00;;;;;;;8.13;3.47;;;18.40;99.90;;;;;;5044694;28;20755;-77
2022/08/01 07:25:26;;;;;;;7.00;3.20;;;18.50;99.90;;;;;;5027087;28;20311;-78
2022/08/01 07:27:53;;;;;;;6.28;3.60;;;18.50;99.90;;;;;;5028184;28;20246;-78
2022/08/01 07:30:20;;;;;;;6.67;4.03;;;18.50;99.90;;;;;;5047028;28;20373;-76
2022/08/01 07:32:46;;;;;;;12.53;4.20;;;18.50;99.90;;;;;;5033030;28;20697;-77
2022/08/01 07:35:13;;;;;;;8.40;3.77;;;18.50;99.90;;;;;;5044710;28;20226;-77
2022/08/01 07:37:42;;;;;;;7.90;4.13;;;18.50;99.90;;;;;;5049525;28;20227;-78
2022/08/01 07:40:11;;;;;;;6.83;3.67;;;18.40;99.90;;;;;;5046952;28;20762;-78
2022/08/01 07:42:38;;;;;;;11.90;4.87;;;18.30;99.90;;;;;;5033176;28;20223;-78
2022/08/01 07:45:05;;;;;;;10.57;4.67;;;18.30;99.90;;;;;;5030379;28;20220;-78
2022/08/01 07:47:32;;;;;;;11.23;4.47;;;18.20;99.90;;;;;;5049348;28;20250;-77
2022/08/01 07:50:03;;;;;;;9.97;4.03;;;18.10;99.90;;;;;;5049288;28;20234;-77
2022/08/01 07:52:31;;;;;;;8.80;4.13;;;18.00;99.90;;;;;;5029045;28;20708;-77
2022/08/01 07:54:58;;;;;;;10.53;4.60;;;18.00;99.90;;;;;;5048672;28;20317;-78
2022/08/01 07:57:26;;;;;;;7.80;3.90;;;17.90;99.90;;;;;;5045427;28;20233;-77
2022/08/01 07:59:54;;;;;;;7.43;4.03;;;17.90;99.90;;;;;;5046216;28;20231;-77
2022/08/01 08:02:21;;;;;;;10.90;3.80;;;17.90;99.90;;;;;;5047418;28;20972;-77
2022/08/01 08:04:47;;;;;;;8.07;3.60;;;17.90;99.90;;;;;;5048926;28;20322;-76
2022/08/01 08:07:14;;;;;;;8.57;3.47;;;17.90;99.90;;;;;;5024326;28;20224;-77
2022/08/01 08:09:41;;;;;;;10.80;3.90;;;17.90;99.90;;;;;;5044537;28;20238;-77
2022/08/01 08:12:10;;;;;;;9.07;3.63;;;17.80;99.90;;;;;;5047279;28;20216;-77
2022/08/01 08:14:38;;;;;;;9.37;3.70;;;18.00;99.90;;;;;;5046851;28;20737;-77
2022/08/01 08:17:06;;;;;;;12.13;4.00;;;18.00;99.90;;;;;;5030813;28;20254;-77
2022/08/01 08:19:33;;;;;;;7.57;3.40;;;18.00;99.90;;;;;;5050186;28;20591;-76
2022/08/01 08:22:00;;;;;;;9.67;3.40;;;18.10;99.90;;;;;;5028996;28;20241;-77
2022/08/01 08:24:27;;;;;;;12.00;3.90;;;18.20;99.90;;;;;;5028162;28;20303;-78
2022/08/01 08:26:56;;;;;;;9.32;3.80;;;18.20;99.90;;;;;;5034183;28;20224;-78
2022/08/01 08:29:23;;;;;;;8.30;3.20;;;18.30;99.90;;;;;;5051394;28;20736;-79
2022/08/01 08:31:52;;;;;;;11.50;4.23;;;18.40;99.90;;;;;;5028771;28;20224;-80
2022/08/01 08:34:19;;;;;;;6.70;2.90;;;18.50;99.90;;;;;;5033509;28;20544;-81
2022/08/01 08:36:46;;;;;;;10.13;3.47;;;18.60;99.90;;;;;;5036486;28;20224;-79
2022/08/01 08:39:13;;;;;;;9.13;3.40;;;18.80;99.90;;;;;;5040716;28;20239;-79
2022/08/01 08:41:39;;;;;;;9.90;2.47;;;19.00;99.90;;;;;;5051592;28;20230;-79
2022/08/01 08:44:07;;;;;;;7.63;2.67;;;19.20;99.90;;;;;;5032341;28;20645;-79
2022/08/01 08:46:39;;;;;;;6.10;2.67;;;19.40;99.90;;;;;;5045214;28;20728;-79
2022/08/01 08:49:08;;;;;;;6.93;2.80;;;19.50;99.90;;;;;;5022947;28;20228;-79
2022/08/01 08:51:38;;;;;;;8.05;3.10;;;19.50;99.90;;;;;;5046031;28;20310;-79
2022/08/01 08:54:09;;;;;;;9.52;2.95;;;19.50;99.90;;;;;;5044465;28;20620;-79
2022/08/01 08:56:38;;;;;;;8.43;2.80;;;19.40;99.90;;;;;;5049142;28;20223;-79
2022/08/01 08:59:07;;;;;;;7.00;3.25;;;19.30;99.90;;;;;;5050246;28;20235;-79
2022/08/01 09:01:34;;;;;;;6.73;3.10;;;19.20;99.90;;;;;;5043998;28;20234;-80
2022/08/01 09:04:03;;;;;;;8.32;2.90;;;19.10;99.90;;;;;;5044191;28;20256;-79
2022/08/01 09:06:31;;;;;;;6.83;3.07;;;19.00;99.90;;;;;;5046581;28;20251;-82
2022/08/01 09:08:59;;;;;;;7.77;3.10;;;19.00;99.90;;;;;;5050425;28;20228;-82
2022/08/01 09:11:26;;;;;;;5.27;3.07;;;18.90;99.90;;;;;;5054061;28;20603;-82
2022/08/01 09:14:04;;;;;;;10.88;2.75;;;18.90;99.90;;;;;;5028658;28;20236;-82
2022/08/01 09:16:31;;;;;;;5.57;2.35;;;19.00;99.90;;;;;;5046869;28;20704;-81
2022/08/01 09:19:08;;;;;;;4.32;2.45;;;19.20;99.90;;;;;;5023325;28;20280;-82
2022/08/01 09:21:38;;;;;;;5.13;2.17;;;19.40;99.90;;;;;;5049279;28;20219;-82
2022/08/01 09:24:13;;;;;;;9.82;2.63;;;19.60;99.90;;;;;;5045736;28;20227;-83
2022/08/01 09:26:40;;;;;;;6.70;1.98;;;19.90;99.90;;;;;;5042702;28;20306;-82
2022/08/01 09:29:09;;;;;;;4.88;2.05;;;20.30;99.90;;;;;;5047432;28;20230;-82
2022/08/01 09:31:41;;;;;;;3.70;1.77;;;20.70;99.90;;;;;;5050351;28;20227;-82
2022/08/01 09:34:09;;;;;;;6.03;2.05;;;21.30;99.90;;;;;;5047499;28;20278;-82
2022/08/01 09:36:55;;;;;;;11.43;1.70;;;21.90;99.90;;;;;;5036645;28;20617;-82
2022/08/01 09:39:27;;;;;;;6.90;1.60;;;22.40;99.90;;;;;;5040455;28;20235;-81
2022/08/01 09:41:54;;;;;;;5.70;2.08;;;22.80;99.90;;;;;;5035701;28;20255;-82
2022/08/01 09:44:38;;;;;;;8.25;2.17;;;23.10;99.90;;;;;;5032006;28;20231;-82
2022/08/01 09:47:04;;;;;;;5.38;1.92;;;23.40;99.90;;;;;;5042645;28;20408;-82
2022/08/01 09:49:33;;;;;;;7.60;2.47;;;23.50;99.90;;;;;;5019818;28;20246;-82
2022/08/01 09:52:12;;;;;;;7.07;2.20;;;23.50;99.90;;;;;;5045893;28;21256;-82
2022/08/01 09:54:39;;;;;;;6.13;2.30;;;23.60;99.50;;;;;;5066063;28;20242;-82
2022/08/01 09:57:12;;;;;;;4.25;1.98;;;23.60;99.80;;;;;;5048230;28;20282;-82
2022/08/01 09:59:42;;;;;;;5.95;2.05;;;23.80;99.30;;;;;;5049825;28;20588;-82
2022/08/01 10:02:15;;;;;;;7.78;2.20;;;24.00;99.30;;;;;;5042771;28;20318;-82
2022/08/01 10:04:49;;;;;;;7.93;2.45;;;24.40;99.10;;;;;;5048279;28;20297;-83
2022/08/01 10:07:18;;;;;;;7.53;1.73;;;24.80;97.40;;;;;;5043775;28;20244;-82
2022/08/01 10:09:46;;;;;;;7.35;2.05;;;25.30;97.60;;;;;;5048044;28;20786;-82
2022/08/01 10:12:16;;;;;;;4.20;1.88;;;25.70;97.00;;;;;;5049315;28;20216;-82
2022/08/01 10:14:44;;;;;;;7.70;2.03;;;26.00;95.80;;;;;;5030858;28;20436;-83
2022/08/01 10:17:19;;;;;;;6.57;2.35;;;26.30;95.30;;;;;;5047855;28;20236;-82
2022/08/01 10:19:49;;;;;;;5.78;1.65;;;26.60;94.00;;;;;;5049136;28;20219;-82
2022/08/01 10:22:18;;;;;;;5.97;1.88;;;26.90;94.80;;;;;;5031846;28;20227;-81
2022/08/01 10:24:47;;;;;;;6.35;1.92;;;27.20;93.30;;;;;;5053363;28;20896;-82
2022/08/01 10:27:16;;;;;;;5.95;2.00;;;27.50;93.30;;;;;;5029172;28;20239;-82
2022/08/01 10:29:47;;;;;;;6.63;1.83;;;27.70;92.30;;;;;;5034123;28;20224;-82
2022/08/01 10:32:14;;;;;;;3.65;1.60;;;27.90;90.80;;;;;;5045945;28;20631;-83
2022/08/01 10:34:41;;;;;;;7.00;1.95;;;28.00;91.00;;;;;;5068832;28;20609;-82
2022/08/01 10:37:08;;;;;;;5.97;2.13;;;28.10;90.10;;;;;;5050933;28;20801;-83
2022/08/01 10:39:37;;;;;;;5.90;1.80;;;28.20;90.70;;;;;;5052665;28;20801;-83
2022/08/01 10:42:09;;;;;;;5.10;1.90;;;28.30;88.10;;;;;;5029870;28;20222;-81
2022/08/01 10:44:39;;;;;;;4.28;1.70;;;28.40;87.70;;;;;;5055583;28;20230;-82
2022/08/01 10:47:10;;;;;;;5.90;1.65;;;28.50;88.20;;;;;;5056192;28;20224;-83
2022/08/01 10:49:42;;;;;;;6.55;2.00;;;28.60;84.80;;;;;;5036531;28;20719;-82
2022/08/01 10:52:14;;;;;;;5.93;1.50;;;28.70;85.80;;;;;;5031914;28;20224;-82
2022/08/01 10:54:42;;;;;;;4.60;1.90;;;28.90;85.80;;;;;;5043608;28;20231;-83
2022/08/01 10:57:10;;;;;;;4.22;1.23;;;29.00;83.70;;;;;;5055044;28;20222;-82
2022/08/01 10:59:48;;;;;;;4.68;1.98;;;29.20;82.60;;;;;;5045213;28;20551;-82
2022/08/01 11:02:28;;;;;;;5.22;1.70;;;29.30;81.70;;;;;;5051938;28;20228;-82
2022/08/01 11:04:56;;;;;;;5.10;1.88;;;29.30;80.70;;;;;;5057071;28;20521;-82
2022/08/01 11:07:35;;;;;;;7.00;1.75;;;29.40;78.30;;;;;;5056122;28;20706;-83
2022/08/01 11:10:10;;;;;;;5.03;1.80;;;29.30;77.80;;;;;;5046325;28;20231;-83
2022/08/01 11:12:41;;;;;;;6.05;1.70;;;29.30;77.20;;;;;;5039166;28;20215;-82
2022/08/01 11:15:35;;;;;;;4.68;2.03;;;29.20;75.70;;;;;;5049710;28;20228;-83
2022/08/01 11:18:30;;;;;;;6.35;2.20;;;29.30;79.30;;;;;;5052314;28;20240;-82
2022/08/01 11:20:59;;;;;;;4.22;1.80;;;29.40;79.70;;;;;;5024100;28;20274;-83
2022/08/01 11:23:32;;;;;;;5.03;2.05;;;29.50;78.60;;;;;;5038335;28;20247;-82
2022/08/01 11:26:17;;;;;;;4.80;1.65;;;29.70;77.50;;;;;;5032569;28;20235;-82
2022/08/01 11:28:46;;;;;;;5.95;1.52;;;29.80;74.40;;;;;;5029106;28;20253;-81
2022/08/01 11:31:33;;;;;;;4.88;1.45;;;29.90;72.30;;;;;;5049494;28;20689;-82
2022/08/01 11:34:01;;;;;;;4.00;1.48;;;29.80;73.80;;;;;;5049777;28;20319;-82
2022/08/01 11:36:28;;;;;;;4.60;1.42;;;29.70;71.50;;;;;;5045375;28;20315;-82
2022/08/01 11:39:16;;;;;;;3.30;1.40;;;29.60;71.50;;;;;;5034806;28;20220;-82
2022/08/01 11:41:49;;;;;;;3.58;1.50;;;29.40;70.10;;;;;;5049835;28;20314;-82
2022/08/01 11:44:19;;;;;;;6.38;1.63;;;29.40;69.80;;;;;;5045880;28;20239;-81
2022/08/01 11:47:00;;;;;;;3.60;1.48;;;29.30;70.60;;;;;;5036497;28;20227;-82
2022/08/01 11:49:34;;;;;;;4.55;1.90;;;29.20;70.10;;;;;;5050482;28;20649;-82
2022/08/01 11:52:06;;;;;;;5.30;1.63;;;29.10;70.30;;;;;;5053738;28;20220;-82
2022/08/01 11:54:34;;;;;;;6.35;1.48;;;29.00;70.20;;;;;;5051500;28;20325;-82
2022/08/01 11:57:06;;;;;;;5.32;1.80;;;28.90;70.00;;;;;;5058699;28;20220;-82
2022/08/01 11:59:39;;;;;;;4.55;1.58;;;28.80;69.50;;;;;;5037221;28;20238;-82
2022/08/01 12:02:17;;;;;;;4.22;1.50;;;28.90;71.10;;;;;;5055308;28;20547;-82
2022/08/01 12:04:50;;;;;;;4.95;1.70;;;29.00;69.40;;;;;;5053543;28;20227;-82
2022/08/01 12:07:17;;;;;;;4.50;1.58;;;29.20;68.40;;;;;;5051843;28;20349;-81
2022/08/01 12:09:46;;;;;;;4.40;1.80;;;29.20;68.60;;;;;;5058897;28;20231;-82
2022/08/01 12:12:18;;;;;;;4.70;1.42;;;29.40;66.90;;;;;;5050338;28;20997;-81
2022/08/01 12:14:55;;;;;;;2.80;1.65;;;29.40;65.10;;;;;;5048198;28;20300;-79
2022/08/01 12:17:28;;;;;;;5.13;1.60;;;29.50;65.80;;;;;;5044389;28;20227;-82
2022/08/01 12:19:55;;;;;;;3.58;1.40;;;29.60;65.50;;;;;;5049794;28;20235;-81
2022/08/01 12:22:24;;;;;;;6.28;1.70;;;29.60;64.70;;;;;;5027510;28;20220;-84
2022/08/01 12:24:51;;;;;;;6.20;1.20;;;29.60;66.10;;;;;;5043075;28;20272;-82
2022/08/01 12:27:27;;;;;;;4.20;1.38;;;29.60;63.70;;;;;;5025451;28;20282;-83
2022/08/01 12:29:54;;;;;;;9.40;1.50;;;29.50;61.20;;;;;;5031486;28;20575;-81
2022/08/01 12:32:26;;;;;;;6.20;1.30;;;29.50;61.70;;;;;;5044128;28;20883;-82
2022/08/01 12:34:54;;;;;;;6.68;1.60;;;29.40;60.80;;;;;;5047757;28;20234;-80
2022/08/01 12:37:22;;;;;;;5.90;1.63;;;29.40;63.00;;;;;;5023998;28;20641;-81
2022/08/01 12:39:48;;;;;;;4.07;1.40;;;29.40;63.20;;;;;;5050944;28;20228;-78
2022/08/01 12:42:16;;;;;;;4.97;1.65;;;29.30;62.70;;;;;;5047303;28;20232;-80
2022/08/01 12:44:46;;;;;;;4.20;1.30;;;29.20;62.70;;;;;;5050968;28;20223;-80
2022/08/01 12:47:14;;;;;;;6.63;1.70;;;29.20;61.50;;;;;;5046970;28;20224;-81
2022/08/01 12:49:43;;;;;;;5.80;1.52;;;29.20;62.50;;;;;;5033498;28;20258;-83
2022/08/01 12:52:09;;;;;;;5.40;1.60;;;29.30;61.70;;;;;;5048233;28;20264;-82
2022/08/01 12:55:09;;;;;;;3.38;1.02;;;29.40;62.80;;;;;;5046502;28;20327;-81